x

Sheboygan, Wi (sgnw3) Weather Station

6:00pm - Fri 27th Mar 2015 All times are CDT. -5 hours from GMT.

  • Wind
    13mph, 15mph gusts
  • Air Temp 24°f
  • Sea Pressure 1023.7mb
  • Sheboygan, Wi
  • Sheboygan, Wi

More Historic Weather Station data

Upgrade to MSW Pro to gain access to the past 30 days of data for over 8000 Wavebouys and Weather Stations around the globe.

Join Pro

Comparision Forecast

View Surf forecast
   
Fri 03/27 6:00pm 13 15 mph 1023.7mb 24f
5:00pm 17 20 mph 1023.5mb 23f
4:00pm 20 22 mph 1023.4mb 23f
3:00pm 20 22 mph 1023.6mb 22f
2:00pm 20 22 mph 1023.9mb 22f
1:00pm 21 24 mph 1024mb 22f
12:00pm 20 23 mph 1024mb 21f
11:00am 21 25 mph 1024mb 21f
10:00am 22 24 mph 1023.9mb 20f
9:00am 23 25 mph 1023.5mb 20f
8:00am 18 22 mph 1023.2mb 19f
7:00am 16 21 mph 1022.9mb 19f
6:00am 15 17 mph 1022.3mb 19f
5:00am 20 23 mph 1021.6mb 21f
4:00am 20 23 mph 1021.5mb 20f
3:00am 28 33 mph 1021.2mb 21f
2:00am 25 31 mph 1021.5mb 22f
1:00am 26 29 mph 1021.1mb 24f
12:00am 20 24 mph 1020.7mb 26f
Thu 03/26 11:00pm 22 24 mph 1020.2mb 27f
10:00pm 21 23 mph 1019.6mb 28f
9:00pm 18 22 mph 1019.2mb 30f
8:00pm 16 18 mph 1018.6mb 31f
7:00pm 17 20 mph 1018mb 31f
6:00pm 14 17 mph 1017.2mb 32f
5:00pm 13 15 mph 1016.4mb 33f
4:00pm 17 21 mph 1015.8mb 33f
3:00pm 11 15 mph 1015.1mb 34f
2:00pm 13 17 mph 1015mb 34f
1:00pm 17 20 mph 1015.1mb 34f
12:00pm 15 17 mph 1014.9mb 35f
11:00am 14 17 mph 1014.7mb 36f
10:00am 10 14 mph 1014.5mb 36f
9:00am 13 15 mph 1014.4mb 36f
8:00am 10 13 mph 1014.4mb 36f
7:00am 9 13 mph 1014mb 36f
6:00am 10 13 mph 1013.4mb 36f
5:00am 11 16 mph 1013.2mb 37f
4:00am 10 14 mph 1013.9mb 37f
3:00am 11 16 mph 1014.8mb 38f
2:00am 10 15 mph 1015.3mb 38f
1:00am 15 18 mph 1015.5mb 38f
12:00am 11 14 mph 1015.1mb 39f
Wed 03/25 11:00pm 9 11 mph 1015.2mb 39f
10:00pm 16 20 mph 1015.2mb 39f
9:00pm 11 14 mph 1014.7mb 40f
8:00pm 15 18 mph 1014.4mb 41f
7:00pm 10 14 mph 1013.8mb 44f
6:00pm 17 21 mph 1012.5mb 45f
5:00pm 20 24 mph 1012mb 43f
4:00pm 28 34 mph 1012.1mb 41f
3:00pm 26 32 mph 1011.8mb 40f
2:00pm 23 29 mph 1011.8mb 38f
1:00pm 17 24 mph 1011.4mb 38f
12:00pm 15 18 mph 1010.9mb 36f
11:00am 16 23 mph 1010.3mb 35f
10:00am 17 22 mph 1010.2mb 36f
9:00am 14 15 mph 1009.5mb 35f
8:00am 10 13 mph 1009.5mb 34f
7:00am 9 10 mph 1008.6mb 34f
6:00am 14 15 mph 1008.9mb 33f
5:00am 20 22 mph 1010.2mb 33f
4:00am 16 18 mph 1011.5mb 33f
3:00am 21 24 mph 1012.4mb 33f
2:00am 21 23 mph 1014.2mb 36f
1:00am 20 22 mph 1014.5mb 36f
12:00am 20 22 mph 1016.4mb 36f
Tue 03/24 11:00pm 17 20 mph 1018.4mb 34f
10:00pm 13 14 mph 1019.8mb 33f
9:00pm 13 14 mph 1020.6mb 32f
8:00pm 11 13 mph 1021.1mb 32f
7:00pm 8 9 mph 1022mb 32f
6:00pm 9 10 mph 1022.2mb 32f
5:00pm 7 9 mph 1022.9mb 31f
4:00pm 10 11 mph 1024.2mb 31f
3:00pm 13 15 mph 1025.2mb 31f
2:00pm 17 18 mph 1026mb 31f
1:00pm 15 16 mph 1026.9mb 30f
12:00pm 17 18 mph 1027mb 30f
11:00am 15 17 mph 1027.2mb 30f
10:00am 15 16 mph 1027.6mb 31f
9:00am 13 15 mph 1027.8mb 31f
8:00am 11 14 mph 1027.7mb 31f
7:00am 15 17 mph 1027.5mb 31f
6:00am 11 14 mph 1027.2mb 31f
5:00am 9 10 mph 1026.7mb 31f
4:00am 7 9 mph 1026.9mb 31f
3:00am 8 9 mph 1027.3mb 31f
2:00am 8 9 mph 1027.6mb 30f
1:00am 7
mph
1027.5mb 30f